createdAt,value
2023-01-06T02:47:58.934Z,6.63
2023-01-06T02:50:53.438Z,7.57
2023-01-06T02:53:52.863Z,5.77
2023-01-06T02:56:24.441Z,6.10
2023-01-06T02:59:07.306Z,6.40
2023-01-06T03:01:37.683Z,5.77
2023-01-06T03:04:08.742Z,5.93
2023-01-06T03:06:36.291Z,4.80
2023-01-06T03:09:03.773Z,7.93
2023-01-06T03:11:31.465Z,4.20
2023-01-06T03:14:17.758Z,4.00
2023-01-06T03:16:44.404Z,4.47
2023-01-06T03:19:10.902Z,4.07
2023-01-06T03:21:41.232Z,4.10
2023-01-06T03:24:09.024Z,3.57
2023-01-06T03:26:36.039Z,3.97
2023-01-06T03:29:03.298Z,4.90
2023-01-06T03:31:57.740Z,5.53
2023-01-06T03:34:42.799Z,5.67
2023-01-06T03:37:27.864Z,4.50
2023-01-06T03:40:01.660Z,4.30
2023-01-06T03:42:51.312Z,5.30
2023-01-06T03:45:42.354Z,5.20
2023-01-06T03:48:14.036Z,4.90
2023-01-06T03:50:43.777Z,5.67
2023-01-06T03:53:24.086Z,4.17
2023-01-06T03:55:55.721Z,5.63
2023-01-06T03:58:23.170Z,4.77
2023-01-06T04:00:49.703Z,6.47
2023-01-06T04:03:16.522Z,4.67
2023-01-06T04:05:43.073Z,4.57
2023-01-06T04:08:09.625Z,4.60
2023-01-06T04:10:36.099Z,7.67
2023-01-06T04:13:02.619Z,4.37
2023-01-06T04:15:29.528Z,5.63
2023-01-06T04:17:56.448Z,5.13
2023-01-06T04:20:26.106Z,4.83
2023-01-06T04:22:56.750Z,4.67
2023-01-06T04:25:23.666Z,4.47
2023-01-06T04:27:50.247Z,5.83
2023-01-06T04:30:17.132Z,6.03
2023-01-06T04:32:43.669Z,4.77
2023-01-06T04:35:11.174Z,6.80
2023-01-06T04:37:37.786Z,4.60
2023-01-06T04:40:04.737Z,7.63
2023-01-06T04:42:51.191Z,6.50
2023-01-06T04:45:18.788Z,5.37
2023-01-06T04:47:45.420Z,5.13
2023-01-06T04:50:12.175Z,5.03
2023-01-06T04:52:38.632Z,6.53
2023-01-06T04:55:05.329Z,6.03
2023-01-06T04:57:31.830Z,4.73
2023-01-06T04:59:58.362Z,5.77
2023-01-06T05:02:24.965Z,5.50
2023-01-06T05:04:51.463Z,5.33
2023-01-06T05:07:17.912Z,5.83
2023-01-06T05:09:44.406Z,7.00
2023-01-06T05:12:10.901Z,4.57
2023-01-06T05:14:37.384Z,6.60
2023-01-06T05:17:03.914Z,6.63
2023-01-06T05:19:30.467Z,6.03
2023-01-06T05:21:56.945Z,6.63
2023-01-06T05:24:23.564Z,7.23
2023-01-06T05:26:50.019Z,6.87
2023-01-06T05:29:17.514Z,5.83
2023-01-06T05:31:44.111Z,6.73
2023-01-06T05:34:11.560Z,5.00
2023-01-06T05:36:38.115Z,6.53
2023-01-06T05:39:04.692Z,5.10
2023-01-06T05:41:31.361Z,7.37
2023-01-06T05:43:57.932Z,5.70
2023-01-06T05:46:24.431Z,5.60
2023-01-06T05:48:50.980Z,5.00
2023-01-06T05:51:17.665Z,5.30
2023-01-06T05:53:46.583Z,5.40
2023-01-06T05:56:16.040Z,7.73
2023-01-06T05:58:45.653Z,5.27
2023-01-06T06:01:23.432Z,4.70
2023-01-06T06:03:50.778Z,5.63
2023-01-06T06:06:17.986Z,4.40
2023-01-06T06:08:44.553Z,5.37
2023-01-06T06:11:12.952Z,5.07
2023-01-06T06:13:44.891Z,5.20
2023-01-06T06:16:13.074Z,6.73
2023-01-06T06:18:43.937Z,5.60
2023-01-06T06:21:12.572Z,8.87
2023-01-06T06:23:39.440Z,7.10
2023-01-06T06:26:06.375Z,7.50
2023-01-06T06:28:34.248Z,5.23
2023-01-06T06:31:08.939Z,6.57
2023-01-06T06:33:35.870Z,6.97
2023-01-06T06:36:03.976Z,6.70
2023-01-06T06:38:30.624Z,7.93
2023-01-06T06:40:57.188Z,6.63
2023-01-06T06:43:24.042Z,6.63
2023-01-06T06:45:50.605Z,7.17
2023-01-06T06:48:17.351Z,6.60
2023-01-06T06:50:43.819Z,5.97
2023-01-06T06:53:10.299Z,7.23
2023-01-06T06:55:36.879Z,7.03
2023-01-06T06:58:03.365Z,6.93
2023-01-06T07:00:29.835Z,8.07
2023-01-06T07:02:56.382Z,6.43
2023-01-06T07:05:25.549Z,6.07
2023-01-06T07:07:52.314Z,6.90
2023-01-06T07:10:21.935Z,7.93
2023-01-06T07:12:48.470Z,6.60
2023-01-06T07:15:15.056Z,6.53
2023-01-06T07:17:44.207Z,5.37
2023-01-06T07:20:11.256Z,5.83
2023-01-06T07:22:41.503Z,5.93
2023-01-06T07:25:09.444Z,5.80
2023-01-06T07:27:36.813Z,10.43
2023-01-06T07:30:06.656Z,7.10
2023-01-06T07:32:33.576Z,6.87
2023-01-06T07:35:00.150Z,7.90
2023-01-06T07:37:26.860Z,6.07
2023-01-06T07:39:53.610Z,8.50
2023-01-06T07:42:21.521Z,6.17
2023-01-06T07:44:48.188Z,8.93
2023-01-06T07:47:14.865Z,10.13
2023-01-06T07:49:41.398Z,7.67
2023-01-06T07:52:07.980Z,9.43
2023-01-06T07:54:34.870Z,7.20
2023-01-06T07:57:01.643Z,6.97
2023-01-06T07:59:28.632Z,5.60
2023-01-06T08:01:55.601Z,5.27
2023-01-06T08:04:22.164Z,5.70
2023-01-06T08:06:48.676Z,6.53
2023-01-06T08:09:15.413Z,5.20
2023-01-06T08:11:41.962Z,6.17
2023-01-06T08:14:08.520Z,7.53
2023-01-06T08:16:35.210Z,7.97
2023-01-06T08:19:04.304Z,6.00
2023-01-06T08:21:30.824Z,5.53
2023-01-06T08:23:57.487Z,5.87
2023-01-06T08:26:24.149Z,5.70
2023-01-06T08:28:50.903Z,8.63
2023-01-06T08:31:20.822Z,9.07
2023-01-06T08:33:47.654Z,7.27
2023-01-06T08:36:17.503Z,7.33
2023-01-06T08:38:44.390Z,7.57
2023-01-06T08:41:11.518Z,7.47
2023-01-06T08:43:39.770Z,5.03
2023-01-06T08:46:08.024Z,6.93
2023-01-06T08:48:35.357Z,6.87
2023-01-06T08:51:07.845Z,8.47
2023-01-06T08:53:34.794Z,7.73
2023-01-06T08:56:01.707Z,8.00
2023-01-06T08:58:28.361Z,6.93
2023-01-06T09:00:56.459Z,7.43
2023-01-06T09:03:23.154Z,6.37
2023-01-06T09:05:56.150Z,6.90
2023-01-06T09:08:23.324Z,6.53
2023-01-06T09:10:50.822Z,5.47
2023-01-06T09:13:17.862Z,6.93
2023-01-06T09:15:45.161Z,10.93
2023-01-06T09:18:12.229Z,6.60
2023-01-06T09:20:38.757Z,12.13
2023-01-06T09:23:05.306Z,9.80
2023-01-06T09:25:32.012Z,6.00
2023-01-06T09:27:59.405Z,5.93
2023-01-06T09:30:26.316Z,4.87
2023-01-06T09:32:52.907Z,6.83
2023-01-06T09:35:20.553Z,6.53
2023-01-06T09:37:47.376Z,6.80
2023-01-06T09:40:27.446Z,7.20
2023-01-06T09:43:41.231Z,8.10
2023-01-06T09:46:09.144Z,7.77
2023-01-06T09:48:40.681Z,7.23
2023-01-06T09:51:07.551Z,11.67
2023-01-06T09:53:39.323Z,10.57
2023-01-06T09:56:10.358Z,12.23
2023-01-06T09:58:46.780Z,10.80
2023-01-06T10:01:17.005Z,7.53
2023-01-06T10:03:46.370Z,8.63
2023-01-06T10:06:37.150Z,8.97
2023-01-06T10:09:25.275Z,9.33
2023-01-06T10:12:19.461Z,11.73
2023-01-06T10:15:16.983Z,8.73
2023-01-06T10:18:11.608Z,10.37
2023-01-06T10:20:46.454Z,8.50
2023-01-06T10:24:06.854Z,8.80
2023-01-06T10:26:44.243Z,7.77
2023-01-06T10:29:21.620Z,8.37
2023-01-06T10:31:49.569Z,8.17
2023-01-06T10:34:27.073Z,8.80
2023-01-06T10:37:01.810Z,7.30
2023-01-06T10:39:29.656Z,8.90
2023-01-06T10:42:20.596Z,7.10
2023-01-06T10:44:47.328Z,8.50
2023-01-06T10:47:38.340Z,7.77
2023-01-06T10:50:05.700Z,9.00
2023-01-06T10:52:33.185Z,9.27
2023-01-06T10:55:03.955Z,8.60
2023-01-06T10:57:34.520Z,8.83
2023-01-06T11:00:23.084Z,9.63
2023-01-06T11:02:51.460Z,10.00
2023-01-06T11:05:23.975Z,8.30
2023-01-06T11:08:11.384Z,9.83
2023-01-06T11:10:42.479Z,9.83
2023-01-06T11:13:23.737Z,12.63
2023-01-06T11:15:50.429Z,9.40
2023-01-06T11:18:27.608Z,12.77
2023-01-06T11:21:10.093Z,10.77
2023-01-06T11:23:39.923Z,22.27
2023-01-06T11:26:20.025Z,14.37
2023-01-06T11:28:49.009Z,10.43
2023-01-06T11:31:15.585Z,9.13
2023-01-06T11:33:51.108Z,9.87
2023-01-06T11:36:19.154Z,11.67
2023-01-06T11:38:48.303Z,8.93
2023-01-06T11:41:27.339Z,9.37
2023-01-06T11:43:57.710Z,7.27
2023-01-06T11:46:25.580Z,13.00
2023-01-06T11:49:03.661Z,9.57
2023-01-06T11:51:47.493Z,11.53
2023-01-06T11:54:40.024Z,10.23
2023-01-06T11:57:16.456Z,12.73
2023-01-06T12:00:06.300Z,11.37
2023-01-06T12:02:53.082Z,11.57
2023-01-06T12:05:37.688Z,15.00
2023-01-06T12:08:13.712Z,14.00
2023-01-06T12:10:42.234Z,16.90
2023-01-06T12:13:12.768Z,15.77
2023-01-06T12:15:40.930Z,11.83
2023-01-06T12:18:14.633Z,16.47
2023-01-06T12:20:44.823Z,16.63
2023-01-06T12:23:42.619Z,16.87
2023-01-06T12:26:17.356Z,12.80
2023-01-06T12:28:46.145Z,13.37
2023-01-06T12:31:27.645Z,13.27
2023-01-06T12:34:11.539Z,17.03
2023-01-06T12:36:46.242Z,16.03
2023-01-06T12:39:25.581Z,15.23
2023-01-06T12:41:56.294Z,13.80
2023-01-06T12:44:44.292Z,12.17
2023-01-06T12:47:41.439Z,14.53
2023-01-06T12:50:10.591Z,11.60
2023-01-06T12:52:47.288Z,10.00
2023-01-06T12:55:20.682Z,12.00
2023-01-06T12:58:16.539Z,11.67
2023-01-06T13:00:43.297Z,16.37
2023-01-06T13:03:31.294Z,13.07
2023-01-06T13:06:25.274Z,15.13
2023-01-06T13:09:13.537Z,13.10
2023-01-06T13:11:58.549Z,17.23
2023-01-06T13:14:25.022Z,12.47
2023-01-06T13:16:55.886Z,14.77
2023-01-06T13:19:40.883Z,14.07
2023-01-06T13:22:10.134Z,15.90
2023-01-06T13:24:57.885Z,16.90
2023-01-06T13:27:37.291Z,17.27
2023-01-06T13:30:15.924Z,15.70
2023-01-06T13:33:16.206Z,13.60
2023-01-06T13:36:02.343Z,13.70
2023-01-06T13:38:34.545Z,13.30
2023-01-06T13:41:03.054Z,18.17
2023-01-06T13:43:31.812Z,12.13
2023-01-06T13:46:04.793Z,14.70
2023-01-06T13:48:36.108Z,14.23
2023-01-06T13:51:04.858Z,16.07
2023-01-06T13:53:38.543Z,13.30
2023-01-06T13:56:13.933Z,15.53
2023-01-06T13:58:45.097Z,16.17
2023-01-06T14:01:15.772Z,15.70
2023-01-06T14:03:43.149Z,17.03
2023-01-06T14:06:14.154Z,20.90
2023-01-06T14:08:57.407Z,15.13
2023-01-06T14:11:28.727Z,15.10
2023-01-06T14:14:00.584Z,15.07
2023-01-06T14:16:48.252Z,18.10
2023-01-06T14:19:17.417Z,21.80
2023-01-06T14:21:44.677Z,15.23
2023-01-06T14:24:31.450Z,15.77
2023-01-06T14:27:03.734Z,14.03
2023-01-06T14:29:43.039Z,14.73
2023-01-06T14:32:17.486Z,19.47
2023-01-06T14:34:50.462Z,16.27
2023-01-06T14:37:19.366Z,15.70
2023-01-06T14:39:50.172Z,14.27
2023-01-06T14:42:39.229Z,14.77
2023-01-06T14:45:29.650Z,15.07
2023-01-06T14:48:12.789Z,13.57
2023-01-06T14:50:47.309Z,17.33
2023-01-06T14:53:33.643Z,15.70
2023-01-06T14:56:28.077Z,15.47
2023-01-06T14:59:26.836Z,19.27
2023-01-06T15:01:57.995Z,16.27
2023-01-06T15:04:30.380Z,18.60
2023-01-06T15:07:03.287Z,15.13
2023-01-06T15:09:30.070Z,17.83
2023-01-06T15:11:56.894Z,15.40
2023-01-06T15:14:32.288Z,16.03
2023-01-06T15:17:05.257Z,17.50
2023-01-06T15:19:32.076Z,18.70
2023-01-06T15:22:00.029Z,17.03
2023-01-06T15:24:35.475Z,13.40
2023-01-06T15:27:06.846Z,15.07
2023-01-06T15:29:33.852Z,17.10
2023-01-06T15:32:00.909Z,17.17
2023-01-06T15:34:33.702Z,20.07
2023-01-06T15:37:01.385Z,18.87
2023-01-06T15:39:30.069Z,21.40
2023-01-06T15:41:57.349Z,18.00
2023-01-06T15:44:31.640Z,19.30
2023-01-06T15:47:26.894Z,16.70
2023-01-06T15:49:56.987Z,18.23
2023-01-06T15:52:28.052Z,17.73
2023-01-06T15:54:56.805Z,17.77
2023-01-06T15:57:24.061Z,19.23
2023-01-06T16:00:04.475Z,18.07
2023-01-06T16:02:31.923Z,21.40
2023-01-06T16:05:00.512Z,19.57
2023-01-06T16:07:41.915Z,20.73
2023-01-06T16:10:32.028Z,19.13
2023-01-06T16:13:18.318Z,21.47
2023-01-06T16:15:50.669Z,22.10
2023-01-06T16:18:27.167Z,24.20
2023-01-06T16:20:54.221Z,20.83
2023-01-06T16:23:31.272Z,24.83
2023-01-06T16:26:20.848Z,24.90
2023-01-06T16:28:50.757Z,23.50
2023-01-06T16:31:30.477Z,24.77
2023-01-06T16:34:22.305Z,24.73
2023-01-06T16:36:49.361Z,26.00
2023-01-06T16:39:16.045Z,26.53
2023-01-06T16:42:27.274Z,25.20
2023-01-06T16:45:00.968Z,25.40
2023-01-06T16:47:27.814Z,27.80
2023-01-06T16:49:54.448Z,25.43
2023-01-06T16:52:20.943Z,28.87
2023-01-06T16:54:52.719Z,29.17
2023-01-06T16:57:20.523Z,28.90
2023-01-06T16:59:47.189Z,27.03
2023-01-06T17:02:16.173Z,45.27
2023-01-06T17:04:46.931Z,32.60
2023-01-06T17:07:15.153Z,34.17
2023-01-06T17:09:42.699Z,31.17
2023-01-06T17:12:12.215Z,33.83
2023-01-06T17:14:38.775Z,37.07
2023-01-06T17:17:23.710Z,35.83
2023-01-06T17:19:50.825Z,33.43
2023-01-06T17:22:28.270Z,40.63
2023-01-06T17:24:59.238Z,32.23
2023-01-06T17:27:27.711Z,35.50
2023-01-06T17:29:55.572Z,42.50
2023-01-06T17:32:34.124Z,43.00
2023-01-06T17:35:01.394Z,46.70
2023-01-06T17:37:30.061Z,50.90
2023-01-06T17:39:57.112Z,49.03
2023-01-06T17:42:28.214Z,45.63
2023-01-06T17:44:56.947Z,52.43
2023-01-06T17:47:23.341Z,48.07
2023-01-06T17:49:54.977Z,47.40
2023-01-06T17:52:32.842Z,55.87
2023-01-06T17:55:44.183Z,46.77
2023-01-06T17:58:19.069Z,50.73
2023-01-06T18:00:46.620Z,51.10
2023-01-06T18:03:19.264Z,52.77
2023-01-06T18:05:46.049Z,54.93
2023-01-06T18:08:15.101Z,55.03
2023-01-06T18:10:46.127Z,54.60
2023-01-06T18:13:23.106Z,52.23
2023-01-06T18:15:54.117Z,52.40
2023-01-06T18:18:32.212Z,50.67
2023-01-06T18:21:36.207Z,52.93
2023-01-06T18:24:23.161Z,57.47
2023-01-06T18:26:56.520Z,51.77
2023-01-06T18:29:30.344Z,49.07
2023-01-06T18:32:22.382Z,52.77
2023-01-06T18:34:54.211Z,56.40
2023-01-06T18:37:26.007Z,53.60
2023-01-06T18:39:56.624Z,51.53
2023-01-06T18:42:36.022Z,53.20
2023-01-06T18:45:18.756Z,47.67
2023-01-06T18:47:57.805Z,54.90
2023-01-06T18:50:33.608Z,53.83
2023-01-06T18:53:22.919Z,50.47
2023-01-06T18:55:51.507Z,55.77
2023-01-06T18:58:42.125Z,56.53
2023-01-06T19:01:35.119Z,51.97
2023-01-06T19:04:22.477Z,55.90
2023-01-06T19:06:54.551Z,51.53
2023-01-06T19:09:38.575Z,52.27
2023-01-06T19:12:08.035Z,52.70
2023-01-06T19:14:38.591Z,56.77
2023-01-06T19:17:23.986Z,53.07
2023-01-06T19:19:56.168Z,49.57
2023-01-06T19:22:28.316Z,50.90
2023-01-06T19:25:03.601Z,50.80
2023-01-06T19:27:39.468Z,52.70
2023-01-06T19:30:43.371Z,52.73
2023-01-06T19:33:34.926Z,50.67
2023-01-06T19:36:04.626Z,50.80
2023-01-06T19:38:38.848Z,52.73
2023-01-06T19:41:09.664Z,51.20
2023-01-06T19:43:36.525Z,50.50
2023-01-06T19:46:05.017Z,50.33
2023-01-06T19:48:39.372Z,53.37
2023-01-06T19:51:21.251Z,49.23
2023-01-06T19:53:53.682Z,49.87
2023-01-06T19:56:26.347Z,48.47
2023-01-06T19:58:56.531Z,44.73
2023-01-06T20:01:23.702Z,48.53
2023-01-06T20:03:54.968Z,49.03
2023-01-06T20:06:22.621Z,49.90
2023-01-06T20:08:52.400Z,49.00
2023-01-06T20:11:25.455Z,55.60
2023-01-06T20:13:52.481Z,52.63
2023-01-06T20:16:20.175Z,49.37
2023-01-06T20:18:46.851Z,44.77
2023-01-06T20:21:13.554Z,51.57
2023-01-06T20:23:40.232Z,51.00
2023-01-06T20:26:07.181Z,46.27
2023-01-06T20:28:34.020Z,48.03
2023-01-06T20:31:00.725Z,45.57
2023-01-06T20:33:27.421Z,48.37
2023-01-06T20:35:54.189Z,48.27
2023-01-06T20:38:20.904Z,43.77
2023-01-06T20:40:47.656Z,45.43
2023-01-06T20:43:14.422Z,45.30
2023-01-06T20:45:41.093Z,42.57
2023-01-06T20:48:07.764Z,44.27
2023-01-06T20:50:34.595Z,41.80
2023-01-06T20:53:01.275Z,43.73
2023-01-06T20:55:27.745Z,44.13
2023-01-06T20:57:54.419Z,45.63
2023-01-06T21:00:21.151Z,46.47
2023-01-06T21:02:47.754Z,41.20
2023-01-06T21:05:14.483Z,44.70
2023-01-06T21:07:41.218Z,44.27
2023-01-06T21:10:08.326Z,48.33
2023-01-06T21:12:35.085Z,44.47
2023-01-06T21:15:01.709Z,49.80
2023-01-06T21:17:28.311Z,50.20
2023-01-06T21:19:55.525Z,48.43
2023-01-06T21:22:22.390Z,50.33
2023-01-06T21:24:48.933Z,46.03
2023-01-06T21:27:15.649Z,49.20
2023-01-06T21:29:42.209Z,52.73
2023-01-06T21:32:08.984Z,55.30
2023-01-06T21:34:35.704Z,45.27
2023-01-06T21:37:02.269Z,50.40
2023-01-06T21:39:28.795Z,55.10
2023-01-06T21:42:14.356Z,54.03
2023-01-06T21:44:40.970Z,51.07
2023-01-06T21:47:07.542Z,53.57
2023-01-06T21:49:34.100Z,50.20
2023-01-06T21:52:02.365Z,55.80
2023-01-06T21:54:28.925Z,48.50
2023-01-06T21:56:55.657Z,45.93
2023-01-06T21:59:22.181Z,47.13
2023-01-06T22:01:48.942Z,46.90
2023-01-06T22:04:15.685Z,52.30
2023-01-06T22:06:43.316Z,53.70
2023-01-06T22:09:11.249Z,54.20
2023-01-06T22:11:39.712Z,50.27
2023-01-06T22:14:06.789Z,51.10
2023-01-06T22:16:33.531Z,48.00
2023-01-06T22:19:00.231Z,52.93
2023-01-06T22:21:27.454Z,50.90
2023-01-06T22:23:54.776Z,51.63
2023-01-06T22:26:21.481Z,50.77
2023-01-06T22:28:47.991Z,53.27
2023-01-06T22:31:14.623Z,46.23
2023-01-06T22:33:41.340Z,56.93
2023-01-06T22:36:08.164Z,49.47
2023-01-06T22:38:34.693Z,59.13
2023-01-06T22:41:01.662Z,45.87
2023-01-06T22:43:28.219Z,45.53
2023-01-06T22:45:56.672Z,56.50
2023-01-06T22:48:23.769Z,54.27
2023-01-06T22:51:02.133Z,49.67
2023-01-06T22:53:29.942Z,47.93
2023-01-06T22:56:04.743Z,54.13
2023-01-06T22:58:32.840Z,60.80
2023-01-06T23:00:59.589Z,59.27
2023-01-06T23:03:26.315Z,50.97
2023-01-06T23:06:01.772Z,52.07
2023-01-06T23:08:29.990Z,55.23
2023-01-06T23:11:10.570Z,53.77
2023-01-06T23:13:38.683Z,51.77
2023-01-06T23:16:07.772Z,51.17
2023-01-06T23:18:36.230Z,57.77
2023-01-06T23:21:08.117Z,51.93
2023-01-06T23:23:35.449Z,52.57
2023-01-06T23:26:08.155Z,54.43
2023-01-06T23:28:35.080Z,49.93
2023-01-06T23:31:22.879Z,56.53
2023-01-06T23:33:52.193Z,51.63
2023-01-06T23:36:20.273Z,56.00
2023-01-06T23:38:47.346Z,52.27
2023-01-06T23:41:16.387Z,50.47
2023-01-06T23:43:43.502Z,53.77
2023-01-06T23:46:21.581Z,55.50
2023-01-06T23:48:48.851Z,54.27
2023-01-06T23:51:16.628Z,54.00
2023-01-06T23:53:43.479Z,65.10
2023-01-06T23:56:19.879Z,54.27
2023-01-06T23:58:49.111Z,60.10
